Time;durP1;ratioP1;P1;durP2;ratioP2;P2;SDS_P1;SDS_P2;PMS_P1;PMS_P2;Temp;Humidity;BMP_temperature;BMP_pressure;BME280_temperature;BME280_humidity;BME280_pressure;Samples;Min_cycle;Max_cycle;Signal;HPM_P1;HPM_P2
2022/04/11 00:01:37;;;;;;;;;;;5.40;99.90;;;;;;6148132;23;19925;-80
2022/04/11 00:04:04;;;;;;;;;;;5.30;99.90;;;;;;6146912;23;19929;-81
2022/04/11 00:06:31;;;;;;;;;;;5.30;99.90;;;;;;6149344;23;19935;-81
2022/04/11 00:08:58;;;;;;;;;;;5.30;99.90;;;;;;6148337;23;19928;-80
2022/04/11 00:11:25;;;;;;;;;;;5.30;99.90;;;;;;6147483;23;19925;-81
2022/04/11 00:13:52;;;;;;;;;;;5.30;99.90;;;;;;6149497;23;19924;-80
2022/04/11 00:16:20;;;;;;;;;;;5.30;99.90;;;;;;6166275;22;19908;-80
2022/04/11 00:18:47;;;;;;;;;;;5.20;99.90;;;;;;6176734;22;19944;-81
2022/04/11 00:21:14;;;;;;;;;;;5.20;99.90;;;;;;6167128;22;19920;-81
2022/04/11 00:23:41;;;;;;;;;;;5.20;99.90;;;;;;6148792;23;19920;-81
2022/04/11 00:26:08;;;;;;;;;;;5.20;99.90;;;;;;6149437;22;19928;-81
2022/04/11 00:28:36;;;;;;;;;;;5.10;99.90;;;;;;6147829;23;20630;-81
2022/04/11 00:31:03;;;;;;;;;;;5.20;99.90;;;;;;6148655;23;19925;-81
2022/04/11 00:33:31;;;;;;;;;;;5.10;99.90;;;;;;6146963;23;19929;-80
2022/04/11 00:35:58;;;;;;;;;;;5.10;99.90;;;;;;6147634;23;20371;-80
2022/04/11 00:38:25;;;;;;;;;;;5.10;99.90;;;;;;6149192;23;20331;-81
2022/04/11 00:40:52;;;;;;;;;;;5.10;99.90;;;;;;6148569;23;19943;-81
2022/04/11 00:43:42;;;;;;;;;;;5.00;99.90;;;;;;6147165;23;19928;-80
2022/04/11 00:46:09;;;;;;;;;;;5.00;99.90;;;;;;6148699;23;19925;-81
2022/04/11 00:48:39;;;;;;;;;;;4.90;99.90;;;;;;6146129;23;20112;-81
2022/04/11 00:51:07;;;;;;;;;;;4.90;99.90;;;;;;6141573;22;20314;-82
2022/04/11 00:53:35;;;;;;;;;;;4.90;99.90;;;;;;6145807;23;20528;-82
2022/04/11 00:56:03;;;;;;;;;;;4.90;99.90;;;;;;6148645;23;19924;-80
2022/04/11 00:58:31;;;;;;;;;;;4.90;99.90;;;;;;6148543;23;19921;-79
2022/04/11 01:00:59;;;;;;;;;;;4.80;99.90;;;;;;6152171;23;19921;-80
2022/04/11 01:03:26;;;;;;;;;;;4.80;99.90;;;;;;6149116;23;19982;-80
2022/04/11 01:05:54;;;;;;;;;;;4.80;99.90;;;;;;6151167;23;19948;-81
2022/04/11 01:08:22;;;;;;;;;;;4.70;99.90;;;;;;6152729;23;19924;-81
2022/04/11 01:10:49;;;;;;;;;;;4.70;99.90;;;;;;6150131;23;19995;-79
2022/04/11 01:13:16;;;;;;;;;;;4.60;99.90;;;;;;6151458;23;20304;-82
2022/04/11 01:15:53;;;;;;;;;;;4.50;99.90;;;;;;6151544;23;19920;-80
2022/04/11 01:18:20;;;;;;;;;;;4.50;99.90;;;;;;6149581;23;19921;-82
2022/04/11 01:20:46;;;;;;;;;;;4.40;99.90;;;;;;6150142;23;19921;-81
2022/04/11 01:23:15;;;;;;;;;;;4.40;99.90;;;;;;6150547;23;19925;-80
2022/04/11 01:25:43;;;;;;;;;;;4.40;99.90;;;;;;6150821;23;19921;-81
2022/04/11 01:28:10;;;;;;;;;;;4.40;99.90;;;;;;6150033;23;19920;-80
2022/04/11 01:30:37;;;;;;;;;;;4.40;99.90;;;;;;6149977;23;19929;-81
2022/04/11 01:33:14;;;;;;;;;;;4.40;99.90;;;;;;6151983;23;19925;-80
2022/04/11 01:35:41;;;;;;;;;;;4.40;99.90;;;;;;6152050;23;20284;-82
2022/04/11 01:38:08;;;;;;;;;;;4.40;99.90;;;;;;6149365;23;19938;-80
2022/04/11 01:40:37;;;;;;;;;;;4.40;99.90;;;;;;6150693;23;19920;-81
2022/04/11 01:43:04;;;;;;;;;;;4.40;99.90;;;;;;6149010;23;19951;-79
2022/04/11 01:45:31;;;;;;;;;;;4.30;99.90;;;;;;6150321;23;19924;-81
2022/04/11 01:47:58;;;;;;;;;;;4.30;99.90;;;;;;6151297;23;20395;-81
2022/04/11 01:50:25;;;;;;;;;;;4.30;99.90;;;;;;6148564;23;19928;-79
2022/04/11 01:52:52;;;;;;;;;;;4.30;99.90;;;;;;6148453;23;19925;-80
2022/04/11 01:55:19;;;;;;;;;;;4.30;99.90;;;;;;6149890;23;19944;-80
2022/04/11 01:57:50;;;;;;;;;;;4.30;99.90;;;;;;6151290;23;19970;-80
2022/04/11 02:00:17;;;;;;;;;;;4.30;99.90;;;;;;6148920;23;19952;-80
2022/04/11 02:02:46;;;;;;;;;;;4.30;99.90;;;;;;6149909;23;19931;-82
2022/04/11 02:05:12;;;;;;;;;;;4.30;99.90;;;;;;6150141;23;19931;-82
2022/04/11 02:07:40;;;;;;;;;;;4.30;99.90;;;;;;6148516;23;19927;-82
2022/04/11 02:10:08;;;;;;;;;;;4.20;99.90;;;;;;6149406;23;20288;-81
2022/04/11 02:12:35;;;;;;;;;;;4.20;99.90;;;;;;6148236;23;19951;-80
2022/04/11 02:15:04;;;;;;;;;;;4.30;99.90;;;;;;6152453;23;20198;-81
2022/04/11 02:17:31;;;;;;;;;;;4.20;99.90;;;;;;6150633;23;20007;-80
2022/04/11 02:19:58;;;;;;;;;;;4.20;99.90;;;;;;6150167;23;19931;-79
2022/04/11 02:22:25;;;;;;;;;;;4.20;99.90;;;;;;6149086;23;19932;-82
2022/04/11 02:24:52;;;;;;;;;;;4.20;99.90;;;;;;6149652;23;19927;-80
2022/04/11 02:27:19;;;;;;;;;;;4.20;99.90;;;;;;6148073;23;19956;-80
2022/04/11 02:29:47;;;;;;;;;;;4.20;99.90;;;;;;6150469;23;19921;-80
2022/04/11 02:32:15;;;;;;;;;;;4.20;99.90;;;;;;6148718;23;19955;-80
2022/04/11 02:34:43;;;;;;;;;;;4.20;99.90;;;;;;6149904;23;19921;-80
2022/04/11 02:37:10;;;;;;;;;;;4.20;99.90;;;;;;6150567;23;19920;-82
2022/04/11 02:39:37;;;;;;;;;;;4.10;99.90;;;;;;6147887;23;19928;-78
2022/04/11 02:42:05;;;;;;;;;;;4.10;99.90;;;;;;6148363;23;19921;-79
2022/04/11 02:44:32;;;;;;;;;;;4.10;99.90;;;;;;6148122;23;20092;-80
2022/04/11 02:46:59;;;;;;;;;;;4.10;99.90;;;;;;6173987;23;20262;-81
2022/04/11 02:49:28;;;;;;;;;;;4.00;99.90;;;;;;6150235;23;19970;-82
2022/04/11 02:52:07;;;;;;;;;;;4.00;99.90;;;;;;6147284;23;20428;-80
2022/04/11 02:54:34;;;;;;;;;;;4.00;99.90;;;;;;6149771;23;19920;-80
2022/04/11 02:57:01;;;;;;;;;;;4.00;99.90;;;;;;6150134;23;19966;-80
2022/04/11 02:59:28;;;;;;;;;;;4.00;99.90;;;;;;6148654;23;19931;-79
2022/04/11 03:01:58;;;;;;;;;;;4.00;99.90;;;;;;6148678;23;19924;-81
2022/04/11 03:04:26;;;;;;;;;;;4.00;99.90;;;;;;6150898;23;19921;-80
2022/04/11 03:07:17;;;;;;;;;;;4.00;99.90;;;;;;6152063;23;19944;-81
2022/04/11 03:09:44;;;;;;;;;;;4.00;99.90;;;;;;6150024;23;19924;-79
2022/04/11 03:14:39;;;;;;;;;;;4.00;99.90;;;;;;6149058;23;20345;-80
2022/04/11 03:17:07;;;;;;;;;;;3.90;99.90;;;;;;6175003;22;19999;-80
2022/04/11 03:19:36;;;;;;;;;;;4.00;99.90;;;;;;6174725;22;20413;-80
2022/04/11 03:22:04;;;;;;;;;;;3.90;99.90;;;;;;6171750;22;19921;-79
2022/04/11 03:24:33;;;;;;;;;;;;;;;;;;6254218;22;19920;-81
2022/04/11 03:27:01;;;;;;;;;;;3.90;99.90;;;;;;6151196;22;19921;-81
2022/04/11 03:29:33;;;;;;;;;;;3.90;99.90;;;;;;6253811;22;19925;-80
2022/04/11 03:32:00;;;;;;;;;;;3.90;99.90;;;;;;6253328;22;19931;-78
2022/04/11 03:34:30;;;;;;;;;;;3.90;99.90;;;;;;6253417;22;19932;-81
2022/04/11 03:36:57;;;;;;;;;;;3.90;99.90;;;;;;6254223;22;19921;-80
2022/04/11 03:39:27;;;;;;;;;;;3.90;99.90;;;;;;6172744;22;19931;-78
2022/04/11 03:41:53;;;;;;;;;;;3.90;99.90;;;;;;6252699;22;19970;-81
2022/04/11 03:44:27;;;;;;;;;;;3.90;99.90;;;;;;6253059;22;19921;-80
2022/04/11 03:46:59;;;;;;;;;;;3.80;99.90;;;;;;6172397;22;19921;-79
2022/04/11 03:49:30;;;;;;;;;;;3.80;99.90;;;;;;6251717;22;19924;-81
2022/04/11 03:52:02;;;;;;;;;;;3.70;99.90;;;;;;6167618;22;19959;-80
2022/04/11 03:54:30;;;;;;;;;;;3.80;99.90;;;;;;6251351;22;19978;-80
2022/04/11 03:56:58;;;;;;;;;;;3.80;99.90;;;;;;6172940;23;19944;-80
2022/04/11 03:59:27;;;;;;;;;;;3.80;99.90;;;;;;6251622;22;19944;-81
2022/04/11 04:01:55;;;;;;;;;;;3.80;99.90;;;;;;6251615;22;20271;-80
2022/04/11 04:04:22;;;;;;;;;;;3.80;99.90;;;;;;6253238;22;19932;-80
2022/04/11 04:06:49;;;;;;;;;;;3.80;99.90;;;;;;6252563;22;19924;-81
2022/04/11 04:09:19;;;;;;;;;;;3.80;99.90;;;;;;6172402;22;19948;-80
2022/04/11 04:11:45;;;;;;;;;;;3.80;99.90;;;;;;6147455;23;19991;-80
2022/04/11 04:14:18;;;;;;;;;;;3.80;99.90;;;;;;6172353;22;20004;-80
2022/04/11 04:16:50;;;;;;;;;;;3.80;99.90;;;;;;6253137;22;19928;-80
2022/04/11 04:19:20;;;;;;;;;;;3.80;99.90;;;;;;6255281;22;19920;-80
2022/04/11 04:21:49;;;;;;;;;;;3.80;99.90;;;;;;6254597;22;20353;-80
2022/04/11 04:24:19;;;;;;;;;;;3.70;99.90;;;;;;6252988;22;19978;-80
2022/04/11 04:26:46;;;;;;;;;;;3.70;99.90;;;;;;6254545;22;20000;-80
2022/04/11 04:29:16;;;;;;;;;;;3.70;99.90;;;;;;6255794;22;19925;-81
2022/04/11 04:31:47;;;;;;;;;;;3.70;99.90;;;;;;6252463;22;19925;-80
2022/04/11 04:34:16;;;;;;;;;;;3.70;99.90;;;;;;6253454;22;19920;-80
2022/04/11 04:36:43;;;;;;;;;;;3.60;99.90;;;;;;6252870;22;20337;-78
2022/04/11 04:39:10;;;;;;;;;;;3.60;99.90;;;;;;6254305;22;19925;-80
2022/04/11 04:41:40;;;;;;;;;;;3.60;99.90;;;;;;6174410;22;19925;-80
2022/04/11 04:44:08;;;;;;;;;;;3.50;99.90;;;;;;6252921;22;19995;-79
2022/04/11 04:46:37;;;;;;;;;;;3.50;99.90;;;;;;6254897;22;19932;-81
2022/04/11 04:49:11;;;;;;;;;;;3.50;99.90;;;;;;6253335;22;19927;-82
2022/04/11 04:51:40;;;;;;;;;;;3.60;99.90;;;;;;6249911;22;19921;-80
2022/04/11 04:54:07;;;;;;;;;;;3.50;99.90;;;;;;6170535;22;19966;-79
2022/04/11 04:56:36;;;;;;;;;;;3.60;99.90;;;;;;6250072;22;19924;-82
2022/04/11 04:59:09;;;;;;;;;;;3.50;99.90;;;;;;6173021;22;19948;-80
2022/04/11 05:01:38;;;;;;;;;;;3.50;99.90;;;;;;6171303;22;19921;-80
2022/04/11 05:04:06;;;;;;;;;;;3.50;99.90;;;;;;6253592;22;19948;-79
2022/04/11 05:06:36;;;;;;;;;;;3.50;99.90;;;;;;6252277;22;20232;-79
2022/04/11 05:09:06;;;;;;;;;;;3.50;99.90;;;;;;6252994;22;19932;-82
2022/04/11 05:11:33;;;;;;;;;;;3.50;99.90;;;;;;6251800;22;20376;-81
2022/04/11 05:14:00;;;;;;;;;;;3.50;99.90;;;;;;6171971;22;19928;-80
2022/04/11 05:16:30;;;;;;;;;;;3.50;99.90;;;;;;6252676;22;19924;-80
2022/04/11 05:18:57;;;;;;;;;;;3.50;99.90;;;;;;6249169;22;19940;-80
2022/04/11 05:21:24;;;;;;;;;;;3.40;99.90;;;;;;6168099;22;19951;-80
2022/04/11 05:23:51;;;;;;;;;;;3.40;99.90;;;;;;6170794;22;19956;-83
2022/04/11 05:26:20;;;;;;;;;;;3.40;99.90;;;;;;6172261;22;20372;-82
2022/04/11 05:28:48;;;;;;;;;;;3.40;99.90;;;;;;6148832;22;19928;-81
2022/04/11 05:31:16;;;;;;;;;;;3.40;99.90;;;;;;6253387;22;20047;-82
2022/04/11 05:33:44;;;;;;;;;;;3.50;99.90;;;;;;6174028;22;20008;-82
2022/04/11 05:36:15;;;;;;;;;;;3.40;99.90;;;;;;6174286;22;20335;-80
2022/04/11 05:38:42;;;;;;;;;;;3.40;99.90;;;;;;6251881;22;19948;-82
2022/04/11 05:41:09;;;;;;;;;;;3.40;99.90;;;;;;6249215;22;20115;-80
2022/04/11 05:43:45;;;;;;;;;;;3.40;99.90;;;;;;6168531;22;20524;-79
2022/04/11 05:46:14;;;;;;;;;;;3.40;99.90;;;;;;6251469;22;19942;-79
2022/04/11 05:48:46;;;;;;;;;;;3.40;99.90;;;;;;6251642;22;19944;-82
2022/04/11 05:51:13;;;;;;;;;;;3.40;99.90;;;;;;6147031;22;19925;-81
2022/04/11 05:53:40;;;;;;;;;;;3.40;99.90;;;;;;6172743;22;19933;-81
2022/04/11 05:56:08;;;;;;;;;;;3.40;99.90;;;;;;6175113;22;19925;-80
2022/04/11 05:58:34;;;;;;;;;;;3.30;99.90;;;;;;6253585;22;19983;-79
2022/04/11 06:01:05;;;;;;;;;;;3.40;99.90;;;;;;6251422;22;19931;-79
2022/04/11 06:03:32;;;;;;;;;;;3.30;99.90;;;;;;6258495;22;20296;-80
2022/04/11 06:05:59;;;;;;;;;;;3.30;99.90;;;;;;6252536;22;19921;-81
2022/04/11 06:08:26;;;;;;;;;;;3.40;99.90;;;;;;6253794;22;20004;-82
2022/04/11 06:10:53;;;;;;;;;;;3.30;99.90;;;;;;6252058;22;19920;-80
2022/04/11 06:13:22;;;;;;;;;;;3.30;99.90;;;;;;6250230;22;19926;-81
2022/04/11 06:15:51;;;;;;;;;;;3.30;99.90;;;;;;6252747;22;20003;-80
2022/04/11 06:18:19;;;;;;;;;;;3.40;99.90;;;;;;6152792;23;19970;-81
2022/04/11 06:20:46;;;;;;;;;;;3.30;99.90;;;;;;6248736;22;19983;-80
2022/04/11 06:23:14;;;;;;;;;;;3.40;99.90;;;;;;6172489;22;19935;-81
2022/04/11 06:25:41;;;;;;;;;;;3.30;99.90;;;;;;6172678;22;19960;-81
2022/04/11 06:28:08;;;;;;;;;;;3.30;99.90;;;;;;6253461;22;19974;-81
2022/04/11 06:30:36;;;;;;;;;;;3.30;99.90;;;;;;6253417;22;19928;-84
2022/04/11 06:33:03;;;;;;;;;;;3.30;99.90;;;;;;6253445;22;19946;-83
2022/04/11 06:35:31;;;;;;;;;;;3.30;99.90;;;;;;6252364;22;19920;-80
2022/04/11 06:37:58;;;;;;;;;;;3.30;99.90;;;;;;6240336;22;19924;-79
2022/04/11 06:40:25;;;;;;;;;;;3.40;99.90;;;;;;6168499;22;19940;-79
2022/04/11 06:42:52;;;;;;;;;;;3.40;99.90;;;;;;6150164;22;19925;-80
2022/04/11 06:45:38;;;;;;;;;;;3.40;99.90;;;;;;6148401;23;20030;-81
2022/04/11 06:48:09;;;;;;;;;;;3.40;99.90;;;;;;6253825;22;20408;-79
2022/04/11 06:50:37;;;;;;;;;;;3.40;99.90;;;;;;6172853;22;19928;-79
2022/04/11 06:53:05;;;;;;;;;;;3.50;99.90;;;;;;6148599;23;19924;-80
2022/04/11 06:55:32;;;;;;;;;;;3.50;99.90;;;;;;6149841;22;19975;-79
2022/04/11 06:57:59;;;;;;;;;;;3.50;99.90;;;;;;6147548;23;19947;-80
2022/04/11 07:00:26;;;;;;;;;;;3.50;99.90;;;;;;6148178;22;20252;-81
2022/04/11 07:02:53;;;;;;;;;;;3.60;99.90;;;;;;6168223;22;20100;-78
2022/04/11 07:05:20;;;;;;;;;;;3.60;99.90;;;;;;6248743;22;20335;-78
2022/04/11 07:07:49;;;;;;;;;;;3.60;99.90;;;;;;6150875;23;19921;-79
2022/04/11 07:10:16;;;;;;;;;;;3.70;99.90;;;;;;6149687;23;19924;-80
2022/04/11 07:12:43;;;;;;;;;;;3.70;99.90;;;;;;6147797;22;19928;-78
2022/04/11 07:15:10;;;;;;;;;;;3.70;99.90;;;;;;6146845;23;19932;-78
2022/04/11 07:17:37;;;;;;;;;;;3.70;99.90;;;;;;6254163;22;19936;-79
2022/04/11 07:20:05;;;;;;;;;;;3.70;99.90;;;;;;6146095;23;19929;-79
2022/04/11 07:22:32;;;;;;;;;;;3.60;99.90;;;;;;6251870;22;19927;-79
2022/04/11 07:25:02;;;;;;;;;;;3.70;99.90;;;;;;6148241;22;19921;-79
2022/04/11 07:27:28;;;;;;;;;;;3.70;99.90;;;;;;6148883;23;19956;-79
2022/04/11 07:29:55;;;;;;;;;;;3.70;99.90;;;;;;6252605;22;19935;-78
2022/04/11 07:32:22;;;;;;;;;;;3.70;99.90;;;;;;6251918;22;19924;-77
2022/04/11 07:34:49;;;;;;;;;;;3.70;99.90;;;;;;6151265;23;19931;-79
2022/04/11 07:37:16;;;;;;;;;;;3.70;99.90;;;;;;6148764;23;20072;-79
2022/04/11 07:39:43;;;;;;;;;;;3.70;99.90;;;;;;6151479;22;19931;-78
2022/04/11 07:42:11;;;;;;;;;;;3.70;99.90;;;;;;6149559;22;19948;-79
2022/04/11 07:44:38;;;;;;;;;;;3.80;99.90;;;;;;6148557;22;19952;-78
2022/04/11 07:47:05;;;;;;;;;;;3.80;99.90;;;;;;6171643;23;19924;-79
2022/04/11 07:49:32;;;;;;;;;;;3.80;99.90;;;;;;6149679;22;19920;-78
2022/04/11 07:51:59;;;;;;;;;;;3.80;99.90;;;;;;6147482;22;19921;-80
2022/04/11 07:54:26;;;;;;;;;;;3.80;99.90;;;;;;6169803;22;20439;-79
2022/04/11 07:56:53;;;;;;;;;;;3.90;99.90;;;;;;6149319;23;19927;-80
2022/04/11 07:59:21;;;;;;;;;;;3.90;99.90;;;;;;6251609;22;20364;-79
2022/04/11 08:01:48;;;;;;;;;;;3.90;99.90;;;;;;6144905;22;19932;-77
2022/04/11 08:04:15;;;;;;;;;;;3.90;99.90;;;;;;6140935;23;20011;-79
2022/04/11 08:06:42;;;;;;;;;;;3.90;99.90;;;;;;6142804;23;20004;-79
2022/04/11 08:09:09;;;;;;;;;;;3.90;99.90;;;;;;6142944;23;19921;-78
2022/04/11 08:11:36;;;;;;;;;;;4.00;99.90;;;;;;6143390;23;19978;-78
2022/04/11 08:14:03;;;;;;;;;;;4.00;99.90;;;;;;6143145;23;19924;-78
2022/04/11 08:16:31;;;;;;;;;;;3.90;99.90;;;;;;6144359;23;20407;-78
2022/04/11 08:18:59;;;;;;;;;;;4.00;99.90;;;;;;6142423;23;19978;-78
2022/04/11 08:21:25;;;;;;;;;;;4.00;99.90;;;;;;6141969;23;20021;-78
2022/04/11 08:23:53;;;;;;;;;;;4.00;99.90;;;;;;6145073;23;19921;-78
2022/04/11 08:26:20;;;;;;;;;;;4.00;99.90;;;;;;6142091;23;19928;-78
2022/04/11 08:28:47;;;;;;;;;;;4.10;99.90;;;;;;6143967;23;19948;-78
2022/04/11 08:31:14;;;;;;;;;;;4.10;99.90;;;;;;6143982;23;20526;-79
2022/04/11 08:33:42;;;;;;;;;;;4.10;99.90;;;;;;6141352;23;19920;-78
2022/04/11 08:36:09;;;;;;;;;;;4.10;99.90;;;;;;6144956;23;19925;-78
2022/04/11 08:38:36;;;;;;;;;;;4.10;99.90;;;;;;6143294;23;19996;-79
2022/04/11 08:41:03;;;;;;;;;;;4.10;99.90;;;;;;6143201;23;19970;-78
2022/04/11 08:43:31;;;;;;;;;;;4.10;99.90;;;;;;6141952;23;19921;-79
2022/04/11 08:45:59;;;;;;;;;;;4.10;99.90;;;;;;6142323;23;19974;-79
2022/04/11 08:48:26;;;;;;;;;;;4.20;99.90;;;;;;6143583;23;19932;-78
2022/04/11 08:50:54;;;;;;;;;;;4.20;99.90;;;;;;6143560;23;19925;-79
2022/04/11 08:53:22;;;;;;;;;;;4.20;99.90;;;;;;6142218;23;20164;-78
2022/04/11 08:55:49;;;;;;;;;;;4.20;99.90;;;;;;6141668;23;19955;-79
2022/04/11 08:58:16;;;;;;;;;;;4.20;99.90;;;;;;6140466;23;20353;-79
2022/04/11 09:00:43;;;;;;;;;;;4.20;99.90;;;;;;6141681;23;19921;-78
2022/04/11 09:03:10;;;;;;;;;;;4.20;99.90;;;;;;6139398;23;20349;-79
2022/04/11 09:05:38;;;;;;;;;;;4.30;99.90;;;;;;6139245;23;19920;-79
2022/04/11 09:10:47;;;;;;;;;;;4.30;99.90;;;;;;4997602;22;2500349;-79
2022/04/11 09:13:14;;;;;;;;;;;4.30;99.90;;;;;;5073622;23;20387;-80
2022/04/11 09:15:42;;;;;;;;;;;4.30;99.90;;;;;;5008826;28;20550;-79
2022/04/11 09:18:09;;;;;;;;;;;4.30;99.90;;;;;;5016151;28;20021;-79
2022/04/11 09:20:41;;;;;;;;;;;4.30;99.90;;;;;;4991361;28;19933;-77
2022/04/11 09:23:17;;;;;;;;;;;4.30;99.90;;;;;;5011285;28;19925;-79
2022/04/11 09:25:45;;;;;;;;;;;4.40;99.90;;;;;;5013351;28;20079;-79
2022/04/11 09:28:13;;;;;;;;;;;4.40;99.90;;;;;;5015691;28;20384;-78
2022/04/11 09:30:43;;;;;;;;;;;4.40;99.90;;;;;;5014075;28;19979;-79
2022/04/11 09:33:11;;;;;;;;;;;4.40;99.90;;;;;;5001540;28;20025;-79
2022/04/11 09:35:39;;;;;;;;;;;4.50;99.90;;;;;;5002921;28;19932;-79
2022/04/11 09:38:10;;;;;;;;;;;4.50;99.90;;;;;;5014584;28;19944;-79
2022/04/11 09:40:37;;;;;;;;;;;4.50;99.90;;;;;;5015096;28;19929;-79
2022/04/11 09:43:06;;;;;;;;;;;4.50;99.90;;;;;;5019096;28;19929;-80
2022/04/11 09:45:33;;;;;;;;;;;4.50;99.90;;;;;;5014912;28;20032;-78
2022/04/11 09:48:01;;;;;;;;;;;4.60;99.90;;;;;;5020690;28;19933;-79
2022/04/11 09:50:31;;;;;;;;;;;4.60;99.90;;;;;;5016883;28;19929;-79
2022/04/11 09:53:14;;;;;;;;;;;4.60;99.90;;;;;;5015573;28;20043;-79
2022/04/11 09:55:41;;;;;;;;;;;4.70;99.90;;;;;;5016708;28;20403;-79
2022/04/11 09:58:10;;;;;;;;;;;4.70;99.90;;;;;;5011966;28;20315;-79
2022/04/11 10:00:38;;;;;;;;;;;4.70;99.90;;;;;;5015000;28;20626;-79
2022/04/11 10:03:06;;;;;;;;;;;4.70;99.90;;;;;;5015353;28;20347;-79
2022/04/11 10:05:33;;;;;;;;;;;4.80;99.90;;;;;;5015530;28;19930;-79
2022/04/11 10:08:01;;;;;;;;;;;4.80;99.90;;;;;;5014642;28;20374;-79
2022/04/11 10:10:28;;;;;;;;;;;4.80;99.90;;;;;;5015765;28;20777;-79
2022/04/11 10:12:56;;;;;;;;;;;4.80;99.90;;;;;;5025511;28;20391;-80
2022/04/11 10:15:25;;;;;;;;;;;4.80;99.90;;;;;;5013890;28;19951;-79
2022/04/11 10:17:54;;;;;;;;;;;4.80;99.90;;;;;;5013696;28;20553;-80
2022/04/11 10:20:25;;;;;;;;;;;4.90;99.90;;;;;;4997622;28;20300;-79
2022/04/11 10:22:55;;;;;;;;;;;4.90;99.90;;;;;;5000580;28;20323;-79
2022/04/11 10:25:23;;;;;;;;;;;4.90;99.90;;;;;;4991970;28;19944;-79
2022/04/11 10:28:13;;;;;;;;;;;4.90;99.90;;;;;;5004200;28;19933;-79
2022/04/11 10:30:42;;;;;;;;;;;4.90;99.90;;;;;;5000282;28;19937;-79
2022/04/11 10:33:09;;;;;;;;;;;5.00;99.90;;;;;;5003022;28;20403;-79
2022/04/11 10:35:38;;;;;;;;;;;;;;;;;;5001866;28;19953;-79
2022/04/11 10:38:05;;;;;;;;;;;5.00;99.90;;;;;;5003996;28;19925;-78
2022/04/11 10:40:32;;;;;;;;;;;5.00;99.90;;;;;;5002903;28;20026;-79
2022/04/11 10:43:12;;;;;;;;;;;5.00;99.90;;;;;;5004227;28;19991;-80
2022/04/11 10:45:40;;;;;;;;;;;5.10;99.90;;;;;;4986182;28;20020;-79
2022/04/11 10:48:09;;;;;;;;;;;5.10;99.90;;;;;;5005856;28;19926;-79
2022/04/11 10:50:37;;;;;;;;;;;5.20;99.90;;;;;;5004957;28;19937;-79
2022/04/11 10:53:16;;;;;;;;;;;5.20;99.90;;;;;;5001682;28;20024;-79
2022/04/11 10:56:03;;;;;;;;;;;5.20;99.90;;;;;;5003273;28;20687;-79
2022/04/11 10:58:40;;;;;;;;;;;5.20;99.90;;;;;;5002609;28;19977;-79
2022/04/11 11:01:08;;;;;;;;;;;5.30;99.90;;;;;;4999318;28;19938;-78
2022/04/11 11:03:39;;;;;;;;;;;5.40;99.90;;;;;;5001633;28;20388;-78
2022/04/11 11:06:19;;;;;;;;;;;5.40;99.90;;;;;;4987459;28;19925;-79
2022/04/11 11:08:48;;;;;;;;;;;5.40;99.90;;;;;;5002559;28;19932;-79
2022/04/11 11:11:21;;;;;;;;;;;5.30;99.90;;;;;;4999024;28;19929;-78
2022/04/11 11:13:48;;;;;;;;;;;5.40;99.90;;;;;;5002122;28;20032;-80
2022/04/11 11:16:27;;;;;;;;;;;5.40;99.90;;;;;;4987381;28;20400;-79
2022/04/11 11:19:12;;;;;;;;;;;5.50;99.90;;;;;;5001448;28;20198;-79
2022/04/11 11:21:58;;;;;;;;;;;5.50;99.90;;;;;;5017494;28;19953;-80
2022/04/11 11:24:26;;;;;;;;;;;5.50;99.90;;;;;;5006652;28;19956;-80
2022/04/11 11:26:54;;;;;;;;;;;5.60;99.90;;;;;;4999788;28;20368;-80
2022/04/11 11:29:21;;;;;;;;;;;5.60;99.90;;;;;;4998737;28;19936;-79
2022/04/11 11:31:50;;;;;;;;;;;5.60;99.90;;;;;;5000664;28;19929;-79
2022/04/11 11:34:19;;;;;;;;;;;5.60;99.90;;;;;;4999718;28;19929;-80
2022/04/11 11:36:47;;;;;;;;;;;5.70;99.90;;;;;;4999246;28;19988;-79
2022/04/11 11:39:14;;;;;;;;;;;5.70;99.90;;;;;;4987846;28;19940;-79
2022/04/11 11:41:42;;;;;;;;;;;5.70;99.90;;;;;;5007507;28;19937;-79
2022/04/11 11:44:09;;;;;;;;;;;5.80;99.90;;;;;;4997906;28;20406;-80
2022/04/11 11:46:46;;;;;;;;;;;5.80;99.90;;;;;;4995538;28;19934;-79
2022/04/11 11:49:13;;;;;;;;;;;5.90;99.90;;;;;;5002835;28;19930;-81
2022/04/11 11:51:41;;;;;;;;;;;5.90;99.90;;;;;;4995809;28;20498;-81
2022/04/11 11:54:08;;;;;;;;;;;6.00;99.90;;;;;;4994616;28;19926;-81
2022/04/11 11:56:42;;;;;;;;;;;6.00;99.90;;;;;;5003005;28;19925;-81
2022/04/11 11:59:09;;;;;;;;;;;6.20;99.90;;;;;;5008426;28;20071;-81
2022/04/11 12:01:38;;;;;;;;;;;6.20;99.90;;;;;;5008313;28;19932;-81
2022/04/11 12:04:19;;;;;;;;;;;6.30;99.90;;;;;;5012206;28;19949;-81
2022/04/11 12:06:52;;;;;;;;;;;6.20;99.90;;;;;;4993114;28;19928;-81
2022/04/11 12:09:20;;;;;;;;;;;6.30;99.90;;;;;;5007869;28;19929;-81
2022/04/11 12:11:47;;;;;;;;;;;6.30;99.90;;;;;;5013297;28;20012;-81
2022/04/11 12:14:14;;;;;;;;;;;6.30;99.90;;;;;;5020625;28;19996;-80
2022/04/11 12:16:56;;;;;;;;;;;6.30;99.90;;;;;;5016632;28;20398;-81
2022/04/11 12:19:32;;;;;;;;;;;6.40;99.90;;;;;;5022016;28;19926;-81
2022/04/11 12:22:11;;;;;;;;;;;6.40;99.90;;;;;;5019540;28;20007;-80
2022/04/11 12:24:38;;;;;;;;;;;6.50;99.90;;;;;;5013736;28;19960;-81
2022/04/11 12:27:10;;;;;;;;;;;6.50;99.90;;;;;;5017138;28;19948;-82
2022/04/11 12:30:01;;;;;;;;;;;6.50;99.90;;;;;;5014724;28;19988;-81
2022/04/11 12:32:30;;;;;;;;;;;6.60;99.90;;;;;;5016959;28;19930;-80
2022/04/11 12:40:16;;;;;;;;;;;6.70;99.90;;;;;;5092868;22;19931;-82
2022/04/11 12:42:46;;;;;;;;;;;6.70;99.90;;;;;;5038496;28;19952;-82
2022/04/11 12:50:37;;;;;;;;;;;6.90;99.90;;;;;;6023719;22;20023;-81
2022/04/11 12:53:10;;;;;;;;;;;6.90;99.90;;;;;;5084860;28;19924;-81
2022/04/11 12:55:40;;;;;;;;;;;7.00;99.90;;;;;;5057980;28;19935;-81
2022/04/11 12:58:14;;;;;;;;;;;7.30;99.90;;;;;;5056159;28;19960;-82
2022/04/11 13:00:45;;;;;;;;;;;7.50;99.90;;;;;;5045047;28;19925;-81
2022/04/11 13:03:20;;;;;;;;;;;7.60;99.90;;;;;;5043644;28;19925;-81
2022/04/11 13:05:49;;;;;;;;;;;7.70;99.90;;;;;;5047560;28;19956;-82
2022/04/11 13:11:45;;;;;;;;;;;7.70;99.90;;;;;;5051542;28;19927;-81
2022/04/11 13:23:50;;;;;;;;;;;8.00;99.90;;;;;;6177583;22;19943;-81
2022/04/11 13:26:17;;;;;;;;;;;8.00;99.90;;;;;;4995435;28;19987;-81
2022/04/11 13:28:44;;;;;;;;;;;8.20;99.90;;;;;;4996922;28;19934;-81
2022/04/11 13:31:11;;;;;;;;;;;8.10;99.90;;;;;;4989511;28;19981;-81
2022/04/11 13:33:39;;;;;;;;;;;8.20;99.90;;;;;;4991553;28;19926;-81
2022/04/11 13:36:11;;;;;;;;;;;8.30;99.90;;;;;;4993209;28;19926;-80
2022/04/11 13:38:45;;;;;;;;;;;8.40;99.90;;;;;;4991872;28;20009;-80
2022/04/11 13:47:49;;;;;;;;;;;8.50;99.90;;;;;;4988583;28;19976;-80
2022/04/11 13:50:17;;;;;;;;;;;8.70;99.90;;;;;;4974593;28;19932;-81
2022/04/11 13:52:45;;;;;;;;;;;8.80;99.90;;;;;;4988296;28;19930;-80
2022/04/11 13:55:12;;;;;;;;;;;8.70;99.90;;;;;;4971382;28;19926;-81
2022/04/11 13:57:40;;;;;;;;;;;8.80;99.90;;;;;;4996451;28;19973;-80
2022/04/11 14:00:12;;;;;;;;;;;8.80;99.90;;;;;;4992715;28;19926;-81
2022/04/11 14:02:39;;;;;;;;;;;8.90;99.90;;;;;;5002349;23;19961;-80
2022/04/11 14:05:07;;;;;;;;;;;9.00;99.90;;;;;;4978540;28;20116;-80
2022/04/11 14:07:33;;;;;;;;;;;9.00;99.90;;;;;;4995165;28;19940;-80
2022/04/11 14:10:00;;;;;;;;;;;9.10;99.90;;;;;;4983342;28;20296;-81
2022/04/11 14:12:28;;;;;;;;;;;9.20;99.90;;;;;;4975255;28;20421;-80
2022/04/11 14:14:55;;;;;;;;;;;9.20;99.90;;;;;;4974463;28;19941;-82
2022/04/11 14:17:23;;;;;;;;;;;9.50;99.90;;;;;;4981960;28;19929;-80
2022/04/11 14:19:52;;;;;;;;;;;9.70;99.90;;;;;;4977231;28;19930;-82
2022/04/11 14:22:19;;;;;;;;;;;9.90;99.90;;;;;;4979569;28;20026;-82
2022/04/11 14:24:45;;;;;;;;;;;9.90;99.90;;;;;;4986171;28;19932;-80
2022/04/11 14:27:12;;;;;;;;;;;9.80;99.90;;;;;;4985126;28;19926;-80
2022/04/11 14:29:39;;;;;;;;;;;9.80;99.90;;;;;;4981379;28;20006;-82
2022/04/11 14:32:06;;;;;;;;;;;9.80;99.90;;;;;;4967191;28;20447;-80
2022/04/11 14:34:34;;;;;;;;;;;9.80;99.90;;;;;;4979947;28;19961;-80
2022/04/11 14:37:01;;;;;;;;;;;9.90;99.90;;;;;;4980857;28;20512;-80
2022/04/11 14:39:29;;;;;;;;;;;10.00;99.90;;;;;;4983533;28;19934;-80
2022/04/11 14:41:56;;;;;;;;;;;10.00;99.90;;;;;;4980346;28;20020;-81
2022/04/11 14:44:23;;;;;;;;;;;10.10;99.90;;;;;;4951479;28;20000;-82
2022/04/11 14:46:50;;;;;;;;;;;10.20;99.90;;;;;;4987088;28;20013;-83
2022/04/11 14:49:17;;;;;;;;;;;10.20;99.90;;;;;;4982257;28;19926;-80
2022/04/11 14:51:45;;;;;;;;;;;10.30;99.90;;;;;;4965201;28;19980;-80
2022/04/11 14:54:12;;;;;;;;;;;10.30;99.90;;;;;;4981996;28;19934;-80
2022/04/11 14:56:39;;;;;;;;;;;10.40;99.90;;;;;;4985341;28;19930;-80
2022/04/11 14:59:06;;;;;;;;;;;10.40;99.90;;;;;;4968809;28;19968;-80
2022/04/11 15:01:33;;;;;;;;;;;10.40;99.90;;;;;;4981924;28;20028;-82
2022/04/11 15:04:00;;;;;;;;;;;10.50;99.90;;;;;;4981427;28;19934;-80
2022/04/11 15:06:27;;;;;;;;;;;10.60;99.90;;;;;;4965317;28;19930;-82
2022/04/11 15:08:55;;;;;;;;;;;10.70;99.90;;;;;;4980006;28;19993;-80
2022/04/11 15:11:23;;;;;;;;;;;10.70;99.90;;;;;;4984033;28;19933;-80
2022/04/11 15:13:52;;;;;;;;;;;10.80;99.90;;;;;;4973118;28;19929;-81
2022/04/11 15:16:19;;;;;;;;;;;10.80;99.90;;;;;;4985747;28;19965;-80